sensor_id;sensor_type;location;lat;lon;timestamp;P1;durP1;ratioP1;P2;durP2;ratioP2
45676;SDS011;31390;51.186;6.830;2022-09-09T00:01:50;3.83;;;3.38;;
45676;SDS011;31390;51.186;6.830;2022-09-09T00:09:17;8.45;;;5.60;;
45676;SDS011;31390;51.186;6.830;2022-09-09T00:12:04;6.38;;;4.80;;
45676;SDS011;31390;51.186;6.830;2022-09-09T00:14:37;7.45;;;3.60;;
45676;SDS011;31390;51.186;6.830;2022-09-09T00:17:09;5.80;;;2.70;;
45676;SDS011;31390;51.186;6.830;2022-09-09T00:19:43;5.57;;;2.70;;
45676;SDS011;31390;51.186;6.830;2022-09-09T00:29:45;3.90;;;1.67;;
45676;SDS011;31390;51.186;6.830;2022-09-09T00:32:14;3.95;;;1.50;;
45676;SDS011;31390;51.186;6.830;2022-09-09T00:35:02;6.93;;;1.75;;
45676;SDS011;31390;51.186;6.830;2022-09-09T00:37:29;4.88;;;1.90;;
45676;SDS011;31390;51.186;6.830;2022-09-09T00:40:02;4.35;;;1.80;;
45676;SDS011;31390;51.186;6.830;2022-09-09T00:42:39;2.38;;;1.60;;
45676;SDS011;31390;51.186;6.830;2022-09-09T00:45:26;4.40;;;1.85;;
45676;SDS011;31390;51.186;6.830;2022-09-09T00:47:55;2.92;;;1.90;;
45676;SDS011;31390;51.186;6.830;2022-09-09T00:53:24;3.90;;;1.90;;
45676;SDS011;31390;51.186;6.830;2022-09-09T00:58:25;3.92;;;2.10;;
45676;SDS011;31390;51.186;6.830;2022-09-09T01:01:12;4.45;;;1.90;;
45676;SDS011;31390;51.186;6.830;2022-09-09T01:06:31;3.90;;;1.92;;
45676;SDS011;31390;51.186;6.830;2022-09-09T01:17:04;4.95;;;2.47;;
45676;SDS011;31390;51.186;6.830;2022-09-09T01:19:40;2.92;;;1.77;;
45676;SDS011;31390;51.186;6.830;2022-09-09T01:27:51;2.28;;;2.03;;
45676;SDS011;31390;51.186;6.830;2022-09-09T01:30:19;4.18;;;2.22;;
45676;SDS011;31390;51.186;6.830;2022-09-09T01:32:47;3.30;;;1.90;;
45676;SDS011;31390;51.186;6.830;2022-09-09T01:35:26;3.10;;;1.98;;
45676;SDS011;31390;51.186;6.830;2022-09-09T01:37:54;4.60;;;2.03;;
45676;SDS011;31390;51.186;6.830;2022-09-09T01:40:20;3.60;;;1.70;;
45676;SDS011;31390;51.186;6.830;2022-09-09T01:42:48;2.00;;;1.42;;
45676;SDS011;31390;51.186;6.830;2022-09-09T01:45:14;4.15;;;1.77;;
45676;SDS011;31390;51.186;6.830;2022-09-09T01:47:41;3.28;;;1.67;;
45676;SDS011;31390;51.186;6.830;2022-09-09T01:50:24;5.88;;;2.08;;
45676;SDS011;31390;51.186;6.830;2022-09-09T01:52:54;3.10;;;1.85;;
45676;SDS011;31390;51.186;6.830;2022-09-09T01:55:29;5.18;;;1.80;;
45676;SDS011;31390;51.186;6.830;2022-09-09T01:58:01;5.00;;;1.90;;
45676;SDS011;31390;51.186;6.830;2022-09-09T02:00:28;4.75;;;1.80;;
45676;SDS011;31390;51.186;6.830;2022-09-09T02:03:09;4.45;;;2.13;;
45676;SDS011;31390;51.186;6.830;2022-09-09T02:08:38;3.72;;;1.73;;
45676;SDS011;31390;51.186;6.830;2022-09-09T02:11:12;2.97;;;1.95;;
45676;SDS011;31390;51.186;6.830;2022-09-09T02:13:44;5.00;;;1.75;;
45676;SDS011;31390;51.186;6.830;2022-09-09T02:16:23;5.20;;;2.13;;
45676;SDS011;31390;51.186;6.830;2022-09-09T02:22:05;3.75;;;1.80;;
45676;SDS011;31390;51.186;6.830;2022-09-09T02:24:36;2.30;;;1.83;;
45676;SDS011;31390;51.186;6.830;2022-09-09T02:27:20;5.70;;;1.80;;
45676;SDS011;31390;51.186;6.830;2022-09-09T02:29:48;4.43;;;1.80;;
45676;SDS011;31390;51.186;6.830;2022-09-09T02:32:22;5.10;;;1.75;;
45676;SDS011;31390;51.186;6.830;2022-09-09T02:34:51;3.30;;;1.58;;
45676;SDS011;31390;51.186;6.830;2022-09-09T02:37:22;4.57;;;2.30;;
45676;SDS011;31390;51.186;6.830;2022-09-09T02:39:51;4.93;;;1.90;;
45676;SDS011;31390;51.186;6.830;2022-09-09T02:42:20;5.38;;;1.88;;
45676;SDS011;31390;51.186;6.830;2022-09-09T02:44:47;4.85;;;1.83;;
45676;SDS011;31390;51.186;6.830;2022-09-09T02:50:13;3.50;;;1.65;;
45676;SDS011;31390;51.186;6.830;2022-09-09T02:55:16;3.58;;;1.60;;
45676;SDS011;31390;51.186;6.830;2022-09-09T02:57:45;2.55;;;1.40;;
45676;SDS011;31390;51.186;6.830;2022-09-09T03:00:15;7.20;;;1.52;;
45676;SDS011;31390;51.186;6.830;2022-09-09T03:02:43;4.50;;;1.63;;
45676;SDS011;31390;51.186;6.830;2022-09-09T03:05:11;8.23;;;2.03;;
45676;SDS011;31390;51.186;6.830;2022-09-09T03:07:39;3.85;;;1.60;;
45676;SDS011;31390;51.186;6.830;2022-09-09T03:10:07;3.40;;;1.70;;
45676;SDS011;31390;51.186;6.830;2022-09-09T03:12:34;5.85;;;1.77;;
45676;SDS011;31390;51.186;6.830;2022-09-09T03:15:01;4.43;;;1.65;;
45676;SDS011;31390;51.186;6.830;2022-09-09T03:17:28;3.80;;;1.60;;
45676;SDS011;31390;51.186;6.830;2022-09-09T03:19:56;3.50;;;1.60;;
45676;SDS011;31390;51.186;6.830;2022-09-09T03:22:24;6.07;;;1.75;;
45676;SDS011;31390;51.186;6.830;2022-09-09T03:24:51;5.03;;;1.90;;
45676;SDS011;31390;51.186;6.830;2022-09-09T03:27:18;3.30;;;1.80;;
45676;SDS011;31390;51.186;6.830;2022-09-09T03:29:46;4.25;;;1.70;;
45676;SDS011;31390;51.186;6.830;2022-09-09T03:32:18;3.08;;;1.42;;
45676;SDS011;31390;51.186;6.830;2022-09-09T03:34:45;3.97;;;1.92;;
45676;SDS011;31390;51.186;6.830;2022-09-09T03:37:16;3.33;;;1.60;;
45676;SDS011;31390;51.186;6.830;2022-09-09T03:39:44;5.28;;;1.88;;
45676;SDS011;31390;51.186;6.830;2022-09-09T03:42:12;5.25;;;2.20;;
45676;SDS011;31390;51.186;6.830;2022-09-09T03:44:40;5.13;;;2.00;;
45676;SDS011;31390;51.186;6.830;2022-09-09T03:47:08;4.63;;;1.73;;
45676;SDS011;31390;51.186;6.830;2022-09-09T03:49:35;5.38;;;2.00;;
45676;SDS011;31390;51.186;6.830;2022-09-09T03:52:01;5.75;;;1.90;;
45676;SDS011;31390;51.186;6.830;2022-09-09T03:54:28;5.25;;;2.10;;
45676;SDS011;31390;51.186;6.830;2022-09-09T03:56:55;5.25;;;2.08;;
45676;SDS011;31390;51.186;6.830;2022-09-09T03:59:22;5.03;;;2.60;;
45676;SDS011;31390;51.186;6.830;2022-09-09T04:01:49;6.82;;;3.30;;
45676;SDS011;31390;51.186;6.830;2022-09-09T04:04:15;37.08;;;30.90;;
45676;SDS011;31390;51.186;6.830;2022-09-09T04:06:42;41.25;;;33.00;;
45676;SDS011;31390;51.186;6.830;2022-09-09T04:09:08;38.10;;;31.67;;
45676;SDS011;31390;51.186;6.830;2022-09-09T04:11:35;24.15;;;19.52;;
45676;SDS011;31390;51.186;6.830;2022-09-09T04:14:03;10.05;;;6.50;;
45676;SDS011;31390;51.186;6.830;2022-09-09T04:16:32;9.57;;;4.60;;
45676;SDS011;31390;51.186;6.830;2022-09-09T04:18:59;4.97;;;3.35;;
45676;SDS011;31390;51.186;6.830;2022-09-09T04:21:26;5.22;;;2.20;;
45676;SDS011;31390;51.186;6.830;2022-09-09T04:23:53;5.22;;;2.60;;
45676;SDS011;31390;51.186;6.830;2022-09-09T04:26:19;4.18;;;2.10;;
45676;SDS011;31390;51.186;6.830;2022-09-09T04:28:46;4.13;;;2.10;;
45676;SDS011;31390;51.186;6.830;2022-09-09T04:31:18;5.78;;;2.25;;
45676;SDS011;31390;51.186;6.830;2022-09-09T04:33:47;8.05;;;2.72;;
45676;SDS011;31390;51.186;6.830;2022-09-09T04:36:15;6.00;;;2.45;;
45676;SDS011;31390;51.186;6.830;2022-09-09T04:38:41;4.43;;;2.45;;
45676;SDS011;31390;51.186;6.830;2022-09-09T04:41:08;5.65;;;3.55;;
45676;SDS011;31390;51.186;6.830;2022-09-09T04:43:40;6.93;;;3.30;;
45676;SDS011;31390;51.186;6.830;2022-09-09T04:46:07;5.03;;;2.70;;
45676;SDS011;31390;51.186;6.830;2022-09-09T04:48:35;5.97;;;2.42;;
45676;SDS011;31390;51.186;6.830;2022-09-09T04:51:06;6.35;;;2.30;;
45676;SDS011;31390;51.186;6.830;2022-09-09T04:53:33;5.70;;;2.50;;
45676;SDS011;31390;51.186;6.830;2022-09-09T04:56:05;6.35;;;2.70;;
45676;SDS011;31390;51.186;6.830;2022-09-09T04:58:38;4.25;;;2.08;;
45676;SDS011;31390;51.186;6.830;2022-09-09T05:03:38;4.15;;;2.00;;
45676;SDS011;31390;51.186;6.830;2022-09-09T05:06:08;6.25;;;2.25;;
45676;SDS011;31390;51.186;6.830;2022-09-09T05:08:37;4.32;;;1.70;;
45676;SDS011;31390;51.186;6.830;2022-09-09T05:11:04;6.22;;;2.00;;
45676;SDS011;31390;51.186;6.830;2022-09-09T05:13:30;6.60;;;2.15;;
45676;SDS011;31390;51.186;6.830;2022-09-09T05:15:58;4.85;;;2.10;;
45676;SDS011;31390;51.186;6.830;2022-09-09T05:18:25;5.07;;;2.28;;
45676;SDS011;31390;51.186;6.830;2022-09-09T05:20:51;5.80;;;2.28;;
45676;SDS011;31390;51.186;6.830;2022-09-09T05:23:18;4.10;;;2.20;;
45676;SDS011;31390;51.186;6.830;2022-09-09T05:25:53;7.85;;;2.95;;
45676;SDS011;31390;51.186;6.830;2022-09-09T05:28:20;4.93;;;2.38;;
45676;SDS011;31390;51.186;6.830;2022-09-09T05:30:54;3.85;;;2.45;;
45676;SDS011;31390;51.186;6.830;2022-09-09T05:33:20;5.43;;;2.22;;
45676;SDS011;31390;51.186;6.830;2022-09-09T05:35:47;4.50;;;2.65;;
45676;SDS011;31390;51.186;6.830;2022-09-09T05:38:15;6.53;;;2.53;;
45676;SDS011;31390;51.186;6.830;2022-09-09T05:40:47;4.35;;;2.50;;
45676;SDS011;31390;51.186;6.830;2022-09-09T05:43:16;4.97;;;2.67;;
45676;SDS011;31390;51.186;6.830;2022-09-09T05:45:42;6.15;;;2.65;;
45676;SDS011;31390;51.186;6.830;2022-09-09T05:48:09;4.88;;;2.35;;
45676;SDS011;31390;51.186;6.830;2022-09-09T05:50:35;6.47;;;2.47;;
45676;SDS011;31390;51.186;6.830;2022-09-09T05:53:02;4.60;;;2.40;;
45676;SDS011;31390;51.186;6.830;2022-09-09T05:55:30;4.65;;;1.90;;
45676;SDS011;31390;51.186;6.830;2022-09-09T05:57:57;5.00;;;2.17;;
45676;SDS011;31390;51.186;6.830;2022-09-09T06:00:25;6.15;;;2.40;;
45676;SDS011;31390;51.186;6.830;2022-09-09T06:02:52;6.13;;;2.42;;
45676;SDS011;31390;51.186;6.830;2022-09-09T06:05:20;7.57;;;2.40;;
45676;SDS011;31390;51.186;6.830;2022-09-09T06:07:51;6.15;;;2.70;;
45676;SDS011;31390;51.186;6.830;2022-09-09T06:10:18;7.70;;;2.22;;
45676;SDS011;31390;51.186;6.830;2022-09-09T06:12:45;3.90;;;1.92;;
45676;SDS011;31390;51.186;6.830;2022-09-09T06:15:12;5.05;;;2.17;;
45676;SDS011;31390;51.186;6.830;2022-09-09T06:17:38;4.05;;;1.90;;
45676;SDS011;31390;51.186;6.830;2022-09-09T06:20:06;5.55;;;2.17;;
45676;SDS011;31390;51.186;6.830;2022-09-09T06:22:35;6.57;;;2.45;;
45676;SDS011;31390;51.186;6.830;2022-09-09T06:25:03;4.35;;;1.88;;
45676;SDS011;31390;51.186;6.830;2022-09-09T06:27:30;4.88;;;1.75;;
45676;SDS011;31390;51.186;6.830;2022-09-09T06:29:57;6.53;;;2.35;;
45676;SDS011;31390;51.186;6.830;2022-09-09T06:32:27;5.30;;;2.10;;
45676;SDS011;31390;51.186;6.830;2022-09-09T06:34:54;4.32;;;1.70;;
45676;SDS011;31390;51.186;6.830;2022-09-09T06:37:20;4.88;;;1.88;;
45676;SDS011;31390;51.186;6.830;2022-09-09T06:39:49;4.63;;;1.42;;
45676;SDS011;31390;51.186;6.830;2022-09-09T06:42:15;4.18;;;1.65;;
45676;SDS011;31390;51.186;6.830;2022-09-09T06:44:50;5.63;;;1.65;;
45676;SDS011;31390;51.186;6.830;2022-09-09T06:47:43;3.85;;;1.40;;
45676;SDS011;31390;51.186;6.830;2022-09-09T06:50:09;5.50;;;1.65;;
45676;SDS011;31390;51.186;6.830;2022-09-09T06:52:38;5.85;;;1.85;;
45676;SDS011;31390;51.186;6.830;2022-09-09T06:55:07;4.60;;;1.35;;
45676;SDS011;31390;51.186;6.830;2022-09-09T06:57:35;5.82;;;1.77;;
45676;SDS011;31390;51.186;6.830;2022-09-09T07:00:08;4.85;;;1.50;;
45676;SDS011;31390;51.186;6.830;2022-09-09T07:02:34;4.05;;;1.35;;
45676;SDS011;31390;51.186;6.830;2022-09-09T07:05:06;4.97;;;1.45;;
45676;SDS011;31390;51.186;6.830;2022-09-09T07:07:35;5.95;;;1.95;;
45676;SDS011;31390;51.186;6.830;2022-09-09T07:10:02;2.45;;;1.10;;
45676;SDS011;31390;51.186;6.830;2022-09-09T07:12:30;3.88;;;1.35;;
45676;SDS011;31390;51.186;6.830;2022-09-09T07:14:58;6.63;;;1.75;;
45676;SDS011;31390;51.186;6.830;2022-09-09T07:17:25;3.97;;;1.40;;
45676;SDS011;31390;51.186;6.830;2022-09-09T07:19:52;3.38;;;1.17;;
45676;SDS011;31390;51.186;6.830;2022-09-09T07:22:20;3.92;;;1.35;;
45676;SDS011;31390;51.186;6.830;2022-09-09T07:24:46;5.93;;;1.65;;
45676;SDS011;31390;51.186;6.830;2022-09-09T07:27:13;4.03;;;1.30;;
45676;SDS011;31390;51.186;6.830;2022-09-09T07:29:41;4.75;;;1.40;;
45676;SDS011;31390;51.186;6.830;2022-09-09T07:32:08;3.70;;;1.38;;
45676;SDS011;31390;51.186;6.830;2022-09-09T07:34:36;4.95;;;1.85;;
45676;SDS011;31390;51.186;6.830;2022-09-09T07:37:05;5.82;;;1.67;;
45676;SDS011;31390;51.186;6.830;2022-09-09T07:39:33;3.30;;;1.45;;
45676;SDS011;31390;51.186;6.830;2022-09-09T07:42:00;5.07;;;1.58;;
45676;SDS011;31390;51.186;6.830;2022-09-09T07:44:27;4.60;;;1.65;;
45676;SDS011;31390;51.186;6.830;2022-09-09T07:47:00;2.63;;;1.58;;
45676;SDS011;31390;51.186;6.830;2022-09-09T07:49:36;4.47;;;1.40;;
45676;SDS011;31390;51.186;6.830;2022-09-09T07:52:04;6.63;;;2.33;;
45676;SDS011;31390;51.186;6.830;2022-09-09T07:54:32;6.55;;;2.17;;
45676;SDS011;31390;51.186;6.830;2022-09-09T07:57:05;4.97;;;1.38;;
45676;SDS011;31390;51.186;6.830;2022-09-09T07:59:34;5.10;;;1.40;;
45676;SDS011;31390;51.186;6.830;2022-09-09T08:02:02;3.17;;;1.30;;
45676;SDS011;31390;51.186;6.830;2022-09-09T08:04:33;4.60;;;1.40;;
45676;SDS011;31390;51.186;6.830;2022-09-09T08:07:02;3.53;;;1.30;;
45676;SDS011;31390;51.186;6.830;2022-09-09T08:09:35;4.57;;;1.48;;
45676;SDS011;31390;51.186;6.830;2022-09-09T08:12:08;4.78;;;1.70;;
45676;SDS011;31390;51.186;6.830;2022-09-09T08:14:35;4.32;;;1.52;;
45676;SDS011;31390;51.186;6.830;2022-09-09T08:17:02;3.15;;;1.23;;
45676;SDS011;31390;51.186;6.830;2022-09-09T08:19:30;5.03;;;1.60;;
45676;SDS011;31390;51.186;6.830;2022-09-09T08:22:00;6.70;;;1.52;;
45676;SDS011;31390;51.186;6.830;2022-09-09T08:24:29;4.57;;;1.77;;
45676;SDS011;31390;51.186;6.830;2022-09-09T08:26:55;3.95;;;1.48;;
45676;SDS011;31390;51.186;6.830;2022-09-09T08:29:24;3.47;;;1.48;;
45676;SDS011;31390;51.186;6.830;2022-09-09T08:31:54;3.58;;;1.30;;
45676;SDS011;31390;51.186;6.830;2022-09-09T08:34:21;4.80;;;1.50;;
45676;SDS011;31390;51.186;6.830;2022-09-09T08:36:49;5.18;;;1.77;;
45676;SDS011;31390;51.186;6.830;2022-09-09T08:39:20;3.53;;;1.35;;
45676;SDS011;31390;51.186;6.830;2022-09-09T08:44:41;5.70;;;1.63;;
45676;SDS011;31390;51.186;6.830;2022-09-09T08:55:15;5.95;;;1.75;;
45676;SDS011;31390;51.186;6.830;2022-09-09T08:57:53;4.15;;;1.52;;
45676;SDS011;31390;51.186;6.830;2022-09-09T09:00:27;4.53;;;1.85;;
45676;SDS011;31390;51.186;6.830;2022-09-09T09:03:05;4.18;;;1.38;;
45676;SDS011;31390;51.186;6.830;2022-09-09T09:10:51;4.80;;;1.77;;
45676;SDS011;31390;51.186;6.830;2022-09-09T09:18:42;3.75;;;1.10;;
45676;SDS011;31390;51.186;6.830;2022-09-09T09:21:12;3.10;;;1.77;;
45676;SDS011;31390;51.186;6.830;2022-09-09T09:24:00;3.42;;;1.30;;
45676;SDS011;31390;51.186;6.830;2022-09-09T09:26:32;4.03;;;1.20;;
45676;SDS011;31390;51.186;6.830;2022-09-09T09:29:00;4.50;;;1.63;;
45676;SDS011;31390;51.186;6.830;2022-09-09T09:31:31;3.22;;;1.25;;
45676;SDS011;31390;51.186;6.830;2022-09-09T09:34:03;3.15;;;1.17;;
45676;SDS011;31390;51.186;6.830;2022-09-09T09:37:15;5.32;;;1.48;;
45676;SDS011;31390;51.186;6.830;2022-09-09T09:39:38;2.67;;;1.23;;
45676;SDS011;31390;51.186;6.830;2022-09-09T09:42:26;2.40;;;1.08;;
45676;SDS011;31390;51.186;6.830;2022-09-09T09:44:55;4.35;;;1.38;;
45676;SDS011;31390;51.186;6.830;2022-09-09T09:47:22;2.10;;;1.33;;
45676;SDS011;31390;51.186;6.830;2022-09-09T09:50:18;3.92;;;1.30;;
45676;SDS011;31390;51.186;6.830;2022-09-09T09:52:54;1.92;;;1.27;;
45676;SDS011;31390;51.186;6.830;2022-09-09T09:55:23;3.40;;;1.25;;
45676;SDS011;31390;51.186;6.830;2022-09-09T09:57:51;2.38;;;1.20;;
45676;SDS011;31390;51.186;6.830;2022-09-09T10:00:22;3.58;;;1.50;;
45676;SDS011;31390;51.186;6.830;2022-09-09T10:03:18;9.20;;;1.58;;
45676;SDS011;31390;51.186;6.830;2022-09-09T10:05:47;3.60;;;1.40;;
45676;SDS011;31390;51.186;6.830;2022-09-09T10:08:15;4.15;;;1.35;;
45676;SDS011;31390;51.186;6.830;2022-09-09T10:13:25;2.88;;;1.10;;
45676;SDS011;31390;51.186;6.830;2022-09-09T10:18:39;6.05;;;1.15;;
45676;SDS011;31390;51.186;6.830;2022-09-09T10:36:56;6.05;;;1.10;;
45676;SDS011;31390;51.186;6.830;2022-09-09T10:39:35;2.25;;;1.10;;
45676;SDS011;31390;51.186;6.830;2022-09-09T10:42:09;2.97;;;1.17;;
45676;SDS011;31390;51.186;6.830;2022-09-09T10:44:40;4.07;;;1.13;;
45676;SDS011;31390;51.186;6.830;2022-09-09T10:55:23;3.00;;;1.00;;
45676;SDS011;31390;51.186;6.830;2022-09-09T10:57:55;2.03;;;0.82;;
45676;SDS011;31390;51.186;6.830;2022-09-09T11:00:25;3.45;;;0.90;;
45676;SDS011;31390;51.186;6.830;2022-09-09T11:03:16;4.45;;;0.85;;
45676;SDS011;31390;51.186;6.830;2022-09-09T11:05:45;3.45;;;1.05;;
45676;SDS011;31390;51.186;6.830;2022-09-09T11:08:15;3.45;;;1.00;;
45676;SDS011;31390;51.186;6.830;2022-09-09T11:11:02;2.92;;;1.10;;
45676;SDS011;31390;51.186;6.830;2022-09-09T11:13:41;1.45;;;0.80;;
45676;SDS011;31390;51.186;6.830;2022-09-09T11:16:19;1.02;;;0.57;;
45676;SDS011;31390;51.186;6.830;2022-09-09T11:18:47;2.42;;;0.88;;
45676;SDS011;31390;51.186;6.830;2022-09-09T11:21:16;2.30;;;1.02;;
45676;SDS011;31390;51.186;6.830;2022-09-09T11:23:47;2.75;;;0.98;;
45676;SDS011;31390;51.186;6.830;2022-09-09T11:26:17;3.28;;;1.20;;
45676;SDS011;31390;51.186;6.830;2022-09-09T11:28:53;1.73;;;0.95;;
45676;SDS011;31390;51.186;6.830;2022-09-09T11:41:47;2.28;;;1.00;;
45676;SDS011;31390;51.186;6.830;2022-09-09T11:44:19;3.63;;;1.45;;
45676;SDS011;31390;51.186;6.830;2022-09-09T11:46:50;2.38;;;0.90;;
45676;SDS011;31390;51.186;6.830;2022-09-09T11:50:06;2.05;;;0.90;;
45676;SDS011;31390;51.186;6.830;2022-09-09T11:52:12;1.08;;;0.60;;
45676;SDS011;31390;51.186;6.830;2022-09-09T11:54:47;2.63;;;1.10;;
45676;SDS011;31390;51.186;6.830;2022-09-09T11:57:36;2.80;;;0.80;;
45676;SDS011;31390;51.186;6.830;2022-09-09T12:00:04;1.95;;;0.90;;
45676;SDS011;31390;51.186;6.830;2022-09-09T12:02:51;2.45;;;0.77;;
45676;SDS011;31390;51.186;6.830;2022-09-09T12:05:18;3.85;;;0.90;;
45676;SDS011;31390;51.186;6.830;2022-09-09T12:07:50;1.60;;;1.00;;
45676;SDS011;31390;51.186;6.830;2022-09-09T12:10:22;2.42;;;1.10;;
45676;SDS011;31390;51.186;6.830;2022-09-09T12:12:49;4.07;;;1.45;;
45676;SDS011;31390;51.186;6.830;2022-09-09T12:17:46;5.75;;;1.52;;
45676;SDS011;31390;51.186;6.830;2022-09-09T12:25:23;3.80;;;1.70;;
45676;SDS011;31390;51.186;6.830;2022-09-09T12:27:59;6.00;;;1.80;;
45676;SDS011;31390;51.186;6.830;2022-09-09T12:30:29;5.88;;;2.03;;
45676;SDS011;31390;51.186;6.830;2022-09-09T12:33:02;3.58;;;1.73;;
45676;SDS011;31390;51.186;6.830;2022-09-09T12:35:28;3.40;;;1.13;;
45676;SDS011;31390;51.186;6.830;2022-09-09T12:38:01;2.92;;;1.50;;
45676;SDS011;31390;51.186;6.830;2022-09-09T12:40:29;2.88;;;1.58;;
45676;SDS011;31390;51.186;6.830;2022-09-09T12:42:57;4.68;;;1.50;;
45676;SDS011;31390;51.186;6.830;2022-09-09T12:45:31;4.43;;;1.75;;
45676;SDS011;31390;51.186;6.830;2022-09-09T12:50:25;4.13;;;1.45;;
45676;SDS011;31390;51.186;6.830;2022-09-09T12:52:53;5.38;;;1.50;;
45676;SDS011;31390;51.186;6.830;2022-09-09T12:55:25;3.20;;;1.23;;
45676;SDS011;31390;51.186;6.830;2022-09-09T12:57:53;2.35;;;1.17;;
45676;SDS011;31390;51.186;6.830;2022-09-09T13:00:21;15.00;;;3.50;;
45676;SDS011;31390;51.186;6.830;2022-09-09T13:05:23;7.65;;;3.58;;
45676;SDS011;31390;51.186;6.830;2022-09-09T13:07:50;6.35;;;2.20;;
45676;SDS011;31390;51.186;6.830;2022-09-09T13:10:26;7.18;;;2.80;;
45676;SDS011;31390;51.186;6.830;2022-09-09T13:13:14;5.05;;;2.28;;
45676;SDS011;31390;51.186;6.830;2022-09-09T13:15:48;4.82;;;2.35;;
45676;SDS011;31390;51.186;6.830;2022-09-09T13:18:15;4.32;;;2.67;;
45676;SDS011;31390;51.186;6.830;2022-09-09T13:20:49;6.75;;;3.13;;
45676;SDS011;31390;51.186;6.830;2022-09-09T13:23:16;7.03;;;3.50;;
45676;SDS011;31390;51.186;6.830;2022-09-09T13:25:59;5.20;;;2.85;;
45676;SDS011;31390;51.186;6.830;2022-09-09T13:28:27;9.27;;;3.63;;
45676;SDS011;31390;51.186;6.830;2022-09-09T13:33:35;3.88;;;2.83;;
45676;SDS011;31390;51.186;6.830;2022-09-09T13:36:07;7.55;;;3.90;;
45676;SDS011;31390;51.186;6.830;2022-09-09T13:41:24;8.27;;;4.53;;
45676;SDS011;31390;51.186;6.830;2022-09-09T13:43:51;10.48;;;4.72;;
45676;SDS011;31390;51.186;6.830;2022-09-09T13:49:02;10.27;;;5.70;;
45676;SDS011;31390;51.186;6.830;2022-09-09T13:51:33;15.88;;;9.00;;
45676;SDS011;31390;51.186;6.830;2022-09-09T13:54:01;7.82;;;4.90;;
45676;SDS011;31390;51.186;6.830;2022-09-09T13:56:27;6.35;;;4.25;;
45676;SDS011;31390;51.186;6.830;2022-09-09T13:58:53;8.15;;;4.97;;
45676;SDS011;31390;51.186;6.830;2022-09-09T14:01:20;9.30;;;4.40;;
45676;SDS011;31390;51.186;6.830;2022-09-09T14:03:51;7.72;;;2.95;;
45676;SDS011;31390;51.186;6.830;2022-09-09T14:06:19;5.78;;;1.92;;
45676;SDS011;31390;51.186;6.830;2022-09-09T14:08:51;3.83;;;2.33;;
45676;SDS011;31390;51.186;6.830;2022-09-09T14:11:18;8.95;;;3.17;;
45676;SDS011;31390;51.186;6.830;2022-09-09T14:13:44;6.40;;;3.53;;
45676;SDS011;31390;51.186;6.830;2022-09-09T14:16:11;4.25;;;2.55;;
45676;SDS011;31390;51.186;6.830;2022-09-09T14:18:38;5.00;;;2.65;;
45676;SDS011;31390;51.186;6.830;2022-09-09T14:21:05;5.03;;;1.63;;
45676;SDS011;31390;51.186;6.830;2022-09-09T14:23:31;5.68;;;1.88;;
45676;SDS011;31390;51.186;6.830;2022-09-09T14:25:58;4.45;;;1.55;;
45676;SDS011;31390;51.186;6.830;2022-09-09T14:28:25;4.30;;;2.05;;
45676;SDS011;31390;51.186;6.830;2022-09-09T14:31:11;2.17;;;1.52;;
45676;SDS011;31390;51.186;6.830;2022-09-09T14:33:40;2.55;;;1.50;;
45676;SDS011;31390;51.186;6.830;2022-09-09T14:36:06;6.25;;;1.60;;
45676;SDS011;31390;51.186;6.830;2022-09-09T14:38:33;3.90;;;1.67;;
45676;SDS011;31390;51.186;6.830;2022-09-09T14:41:00;4.65;;;1.77;;
45676;SDS011;31390;51.186;6.830;2022-09-09T14:43:29;2.88;;;1.52;;
45676;SDS011;31390;51.186;6.830;2022-09-09T14:46:05;1.80;;;0.88;;
45676;SDS011;31390;51.186;6.830;2022-09-09T14:48:32;12.27;;;1.83;;
45676;SDS011;31390;51.186;6.830;2022-09-09T14:53:36;13.77;;;2.17;;
45676;SDS011;31390;51.186;6.830;2022-09-09T14:56:26;7.07;;;1.98;;
45676;SDS011;31390;51.186;6.830;2022-09-09T14:58:52;8.90;;;2.63;;
45676;SDS011;31390;51.186;6.830;2022-09-09T15:01:19;3.15;;;1.23;;
45676;SDS011;31390;51.186;6.830;2022-09-09T15:03:50;24.17;;;2.53;;
45676;SDS011;31390;51.186;6.830;2022-09-09T15:06:17;2.72;;;1.80;;
45676;SDS011;31390;51.186;6.830;2022-09-09T15:08:44;12.27;;;3.30;;
45676;SDS011;31390;51.186;6.830;2022-09-09T15:11:12;6.68;;;2.80;;
45676;SDS011;31390;51.186;6.830;2022-09-09T15:13:39;10.10;;;4.00;;
45676;SDS011;31390;51.186;6.830;2022-09-09T15:16:07;2.55;;;1.80;;
45676;SDS011;31390;51.186;6.830;2022-09-09T15:18:34;9.68;;;3.65;;
45676;SDS011;31390;51.186;6.830;2022-09-09T15:21:02;5.90;;;2.22;;
45676;SDS011;31390;51.186;6.830;2022-09-09T15:23:34;5.90;;;2.55;;
45676;SDS011;31390;51.186;6.830;2022-09-09T15:26:01;5.88;;;3.70;;
45676;SDS011;31390;51.186;6.830;2022-09-09T15:28:31;2.33;;;1.42;;
45676;SDS011;31390;51.186;6.830;2022-09-09T15:30:57;6.20;;;2.35;;
45676;SDS011;31390;51.186;6.830;2022-09-09T15:33:26;2.40;;;1.85;;
45676;SDS011;31390;51.186;6.830;2022-09-09T15:35:53;4.85;;;2.50;;
45676;SDS011;31390;51.186;6.830;2022-09-09T15:38:23;7.40;;;3.30;;
45676;SDS011;31390;51.186;6.830;2022-09-09T15:40:54;4.70;;;2.85;;
45676;SDS011;31390;51.186;6.830;2022-09-09T15:43:21;9.07;;;3.28;;
45676;SDS011;31390;51.186;6.830;2022-09-09T15:45:49;3.97;;;2.92;;
45676;SDS011;31390;51.186;6.830;2022-09-09T15:48:18;33.30;;;8.15;;
45676;SDS011;31390;51.186;6.830;2022-09-09T15:50:45;14.30;;;6.00;;
45676;SDS011;31390;51.186;6.830;2022-09-09T15:53:11;8.93;;;4.85;;
45676;SDS011;31390;51.186;6.830;2022-09-09T15:55:38;25.25;;;7.22;;
45676;SDS011;31390;51.186;6.830;2022-09-09T15:58:04;6.80;;;2.78;;
45676;SDS011;31390;51.186;6.830;2022-09-09T16:00:31;7.72;;;3.90;;
45676;SDS011;31390;51.186;6.830;2022-09-09T16:02:57;25.98;;;7.50;;
45676;SDS011;31390;51.186;6.830;2022-09-09T16:05:23;21.63;;;6.53;;
45676;SDS011;31390;51.186;6.830;2022-09-09T16:07:51;7.50;;;3.25;;
45676;SDS011;31390;51.186;6.830;2022-09-09T16:10:18;18.35;;;7.55;;
45676;SDS011;31390;51.186;6.830;2022-09-09T16:12:44;19.13;;;7.43;;
45676;SDS011;31390;51.186;6.830;2022-09-09T16:15:11;33.40;;;9.50;;
45676;SDS011;31390;51.186;6.830;2022-09-09T16:17:38;17.48;;;7.10;;
45676;SDS011;31390;51.186;6.830;2022-09-09T16:20:05;8.20;;;4.10;;
45676;SDS011;31390;51.186;6.830;2022-09-09T16:22:34;9.65;;;5.57;;
45676;SDS011;31390;51.186;6.830;2022-09-09T16:25:00;11.35;;;5.93;;
45676;SDS011;31390;51.186;6.830;2022-09-09T16:27:27;16.65;;;7.00;;
45676;SDS011;31390;51.186;6.830;2022-09-09T16:29:53;8.98;;;5.68;;
45676;SDS011;31390;51.186;6.830;2022-09-09T16:32:20;24.20;;;10.50;;
45676;SDS011;31390;51.186;6.830;2022-09-09T16:34:46;9.52;;;5.53;;
45676;SDS011;31390;51.186;6.830;2022-09-09T16:37:13;11.57;;;5.97;;
45676;SDS011;31390;51.186;6.830;2022-09-09T16:39:39;18.25;;;7.05;;
45676;SDS011;31390;51.186;6.830;2022-09-09T16:42:06;17.17;;;6.80;;
45676;SDS011;31390;51.186;6.830;2022-09-09T16:44:32;12.30;;;5.97;;
45676;SDS011;31390;51.186;6.830;2022-09-09T16:46:59;15.60;;;6.80;;
45676;SDS011;31390;51.186;6.830;2022-09-09T16:49:26;10.10;;;5.18;;
45676;SDS011;31390;51.186;6.830;2022-09-09T16:51:56;10.35;;;4.25;;
45676;SDS011;31390;51.186;6.830;2022-09-09T16:54:23;10.93;;;4.63;;
45676;SDS011;31390;51.186;6.830;2022-09-09T16:56:51;18.85;;;7.30;;
45676;SDS011;31390;51.186;6.830;2022-09-09T16:59:18;17.27;;;6.15;;
45676;SDS011;31390;51.186;6.830;2022-09-09T17:01:46;12.00;;;5.13;;
45676;SDS011;31390;51.186;6.830;2022-09-09T17:04:14;18.30;;;8.45;;
45676;SDS011;31390;51.186;6.830;2022-09-09T17:06:47;14.32;;;6.97;;
45676;SDS011;31390;51.186;6.830;2022-09-09T17:09:13;13.75;;;7.05;;
45676;SDS011;31390;51.186;6.830;2022-09-09T17:11:40;28.58;;;10.45;;
45676;SDS011;31390;51.186;6.830;2022-09-09T17:14:07;24.63;;;9.70;;
45676;SDS011;31390;51.186;6.830;2022-09-09T17:16:35;13.05;;;6.65;;